sensor_id;sensor_type;location;lat;lon;timestamp;temperature;humidity
22430;DHT22;11382;48.086;11.632;2022-09-02T00:00:54;10.90;99.90
22430;DHT22;11382;48.086;11.632;2022-09-02T00:03:26;10.80;99.90
22430;DHT22;11382;48.086;11.632;2022-09-02T00:05:54;10.80;99.90
22430;DHT22;11382;48.086;11.632;2022-09-02T00:08:23;10.80;99.90
22430;DHT22;11382;48.086;11.632;2022-09-02T00:10:51;10.80;99.90
22430;DHT22;11382;48.086;11.632;2022-09-02T00:13:19;10.80;99.90
22430;DHT22;11382;48.086;11.632;2022-09-02T00:15:50;10.80;99.90
22430;DHT22;11382;48.086;11.632;2022-09-02T00:18:17;10.80;99.90
22430;DHT22;11382;48.086;11.632;2022-09-02T00:20:47;10.80;99.90
22430;DHT22;11382;48.086;11.632;2022-09-02T00:23:15;10.70;99.90
22430;DHT22;11382;48.086;11.632;2022-09-02T00:25:44;10.70;99.90
22430;DHT22;11382;48.086;11.632;2022-09-02T00:28:14;10.60;99.90
22430;DHT22;11382;48.086;11.632;2022-09-02T00:30:46;10.60;99.90
22430;DHT22;11382;48.086;11.632;2022-09-02T00:33:16;10.60;99.90
22430;DHT22;11382;48.086;11.632;2022-09-02T00:35:44;10.60;99.90
22430;DHT22;11382;48.086;11.632;2022-09-02T00:38:12;10.60;99.90
22430;DHT22;11382;48.086;11.632;2022-09-02T00:40:46;10.50;99.90
22430;DHT22;11382;48.086;11.632;2022-09-02T00:43:22;10.50;99.90
22430;DHT22;11382;48.086;11.632;2022-09-02T00:45:50;10.60;99.90
22430;DHT22;11382;48.086;11.632;2022-09-02T00:48:21;10.50;99.90
22430;DHT22;11382;48.086;11.632;2022-09-02T00:50:49;10.50;99.90
22430;DHT22;11382;48.086;11.632;2022-09-02T00:53:18;10.40;99.90
22430;DHT22;11382;48.086;11.632;2022-09-02T00:55:48;10.50;99.90
22430;DHT22;11382;48.086;11.632;2022-09-02T00:58:20;10.40;99.90
22430;DHT22;11382;48.086;11.632;2022-09-02T01:00:50;10.40;99.90
22430;DHT22;11382;48.086;11.632;2022-09-02T01:03:26;10.30;99.90
22430;DHT22;11382;48.086;11.632;2022-09-02T01:05:55;10.40;99.90
22430;DHT22;11382;48.086;11.632;2022-09-02T01:08:26;10.30;99.90
22430;DHT22;11382;48.086;11.632;2022-09-02T01:10:55;10.30;99.90
22430;DHT22;11382;48.086;11.632;2022-09-02T01:13:25;10.30;99.90
22430;DHT22;11382;48.086;11.632;2022-09-02T01:15:56;10.30;99.90
22430;DHT22;11382;48.086;11.632;2022-09-02T01:18:28;10.20;99.90
22430;DHT22;11382;48.086;11.632;2022-09-02T01:20:56;10.20;99.90
22430;DHT22;11382;48.086;11.632;2022-09-02T01:23:28;10.20;99.90
22430;DHT22;11382;48.086;11.632;2022-09-02T01:26:01;10.30;99.90
22430;DHT22;11382;48.086;11.632;2022-09-02T01:28:29;10.40;99.90
22430;DHT22;11382;48.086;11.632;2022-09-02T01:30:59;10.50;99.90
22430;DHT22;11382;48.086;11.632;2022-09-02T01:33:28;10.40;99.90
22430;DHT22;11382;48.086;11.632;2022-09-02T01:35:57;10.50;99.90
22430;DHT22;11382;48.086;11.632;2022-09-02T01:38:28;10.40;99.90
22430;DHT22;11382;48.086;11.632;2022-09-02T01:40:56;10.50;99.90
22430;DHT22;11382;48.086;11.632;2022-09-02T01:43:26;10.50;99.90
22430;DHT22;11382;48.086;11.632;2022-09-02T01:45:56;10.50;99.90
22430;DHT22;11382;48.086;11.632;2022-09-02T01:48:27;10.60;99.90
22430;DHT22;11382;48.086;11.632;2022-09-02T01:50:57;10.60;99.90
22430;DHT22;11382;48.086;11.632;2022-09-02T01:53:29;10.70;99.90
22430;DHT22;11382;48.086;11.632;2022-09-02T01:55:58;10.70;99.90
22430;DHT22;11382;48.086;11.632;2022-09-02T01:58:31;10.80;99.90
22430;DHT22;11382;48.086;11.632;2022-09-02T02:00:59;10.70;99.90
22430;DHT22;11382;48.086;11.632;2022-09-02T02:03:28;10.80;99.90
22430;DHT22;11382;48.086;11.632;2022-09-02T02:05:57;10.90;99.90
22430;DHT22;11382;48.086;11.632;2022-09-02T02:08:29;10.80;99.90
22430;DHT22;11382;48.086;11.632;2022-09-02T02:10:58;10.80;99.90
22430;DHT22;11382;48.086;11.632;2022-09-02T02:13:28;10.70;99.90
22430;DHT22;11382;48.086;11.632;2022-09-02T02:15:56;10.60;99.90
22430;DHT22;11382;48.086;11.632;2022-09-02T02:18:25;10.60;99.90
22430;DHT22;11382;48.086;11.632;2022-09-02T02:20:53;10.70;99.90
22430;DHT22;11382;48.086;11.632;2022-09-02T02:23:21;10.60;99.90
22430;DHT22;11382;48.086;11.632;2022-09-02T02:25:50;10.50;99.90
22430;DHT22;11382;48.086;11.632;2022-09-02T02:28:18;10.50;99.90
22430;DHT22;11382;48.086;11.632;2022-09-02T02:30:47;10.60;99.90
22430;DHT22;11382;48.086;11.632;2022-09-02T02:33:15;10.60;99.90
22430;DHT22;11382;48.086;11.632;2022-09-02T02:35:43;10.60;99.90
22430;DHT22;11382;48.086;11.632;2022-09-02T02:38:11;10.50;99.90
22430;DHT22;11382;48.086;11.632;2022-09-02T02:40:41;10.50;99.90
22430;DHT22;11382;48.086;11.632;2022-09-02T02:43:10;10.50;99.90
22430;DHT22;11382;48.086;11.632;2022-09-02T02:45:39;10.40;99.90
22430;DHT22;11382;48.086;11.632;2022-09-02T02:48:06;10.40;99.90
22430;DHT22;11382;48.086;11.632;2022-09-02T02:50:35;10.30;99.90
22430;DHT22;11382;48.086;11.632;2022-09-02T02:53:03;10.30;99.90
22430;DHT22;11382;48.086;11.632;2022-09-02T02:55:31;10.40;99.90
22430;DHT22;11382;48.086;11.632;2022-09-02T02:58:00;10.30;99.90
22430;DHT22;11382;48.086;11.632;2022-09-02T03:00:31;10.20;99.90
22430;DHT22;11382;48.086;11.632;2022-09-02T03:03:06;10.20;99.90
22430;DHT22;11382;48.086;11.632;2022-09-02T03:05:36;10.20;99.90
22430;DHT22;11382;48.086;11.632;2022-09-02T03:08:07;10.20;99.90
22430;DHT22;11382;48.086;11.632;2022-09-02T03:10:36;10.30;99.90
22430;DHT22;11382;48.086;11.632;2022-09-02T03:13:04;10.20;99.90
22430;DHT22;11382;48.086;11.632;2022-09-02T03:15:34;10.20;99.90
22430;DHT22;11382;48.086;11.632;2022-09-02T03:18:04;10.10;99.90
22430;DHT22;11382;48.086;11.632;2022-09-02T03:20:32;10.00;99.90
22430;DHT22;11382;48.086;11.632;2022-09-02T03:23:03;9.90;99.90
22430;DHT22;11382;48.086;11.632;2022-09-02T03:25:33;9.90;99.90
22430;DHT22;11382;48.086;11.632;2022-09-02T03:28:14;9.90;99.90
22430;DHT22;11382;48.086;11.632;2022-09-02T03:30:46;9.90;99.90
22430;DHT22;11382;48.086;11.632;2022-09-02T03:33:16;9.80;99.90
22430;DHT22;11382;48.086;11.632;2022-09-02T03:35:45;9.70;99.90
22430;DHT22;11382;48.086;11.632;2022-09-02T03:38:13;9.80;99.90
22430;DHT22;11382;48.086;11.632;2022-09-02T03:40:43;9.70;99.90
22430;DHT22;11382;48.086;11.632;2022-09-02T03:43:11;9.70;99.90
22430;DHT22;11382;48.086;11.632;2022-09-02T03:45:41;9.60;99.90
22430;DHT22;11382;48.086;11.632;2022-09-02T03:48:13;9.50;99.90
22430;DHT22;11382;48.086;11.632;2022-09-02T03:50:44;9.50;99.90
22430;DHT22;11382;48.086;11.632;2022-09-02T03:53:17;9.50;99.90
22430;DHT22;11382;48.086;11.632;2022-09-02T03:55:51;9.50;99.90
22430;DHT22;11382;48.086;11.632;2022-09-02T03:58:23;9.50;99.90
22430;DHT22;11382;48.086;11.632;2022-09-02T04:00:53;9.40;99.90
22430;DHT22;11382;48.086;11.632;2022-09-02T04:03:24;9.40;99.90
22430;DHT22;11382;48.086;11.632;2022-09-02T04:05:53;9.40;99.90
22430;DHT22;11382;48.086;11.632;2022-09-02T04:08:25;9.30;99.90
22430;DHT22;11382;48.086;11.632;2022-09-02T04:10:58;9.30;99.90
22430;DHT22;11382;48.086;11.632;2022-09-02T04:13:26;9.20;99.90
22430;DHT22;11382;48.086;11.632;2022-09-02T04:15:54;9.10;99.90
22430;DHT22;11382;48.086;11.632;2022-09-02T04:18:29;9.10;99.90
22430;DHT22;11382;48.086;11.632;2022-09-02T04:20:58;9.20;99.90
22430;DHT22;11382;48.086;11.632;2022-09-02T04:23:27;9.20;99.90
22430;DHT22;11382;48.086;11.632;2022-09-02T04:25:55;9.20;99.90
22430;DHT22;11382;48.086;11.632;2022-09-02T04:28:24;9.30;99.90
22430;DHT22;11382;48.086;11.632;2022-09-02T04:30:52;9.20;99.90
22430;DHT22;11382;48.086;11.632;2022-09-02T04:33:21;9.20;99.90
22430;DHT22;11382;48.086;11.632;2022-09-02T04:35:51;9.10;99.90
22430;DHT22;11382;48.086;11.632;2022-09-02T04:38:19;9.20;99.90
22430;DHT22;11382;48.086;11.632;2022-09-02T04:40:47;9.30;99.90
22430;DHT22;11382;48.086;11.632;2022-09-02T04:43:17;9.40;99.90
22430;DHT22;11382;48.086;11.632;2022-09-02T04:45:46;9.50;99.90
22430;DHT22;11382;48.086;11.632;2022-09-02T04:48:17;9.60;99.90
22430;DHT22;11382;48.086;11.632;2022-09-02T04:50:47;9.80;99.90
22430;DHT22;11382;48.086;11.632;2022-09-02T04:53:17;9.90;99.90
22430;DHT22;11382;48.086;11.632;2022-09-02T04:55:45;10.10;99.90
22430;DHT22;11382;48.086;11.632;2022-09-02T04:58:14;10.10;99.90
22430;DHT22;11382;48.086;11.632;2022-09-02T05:00:43;10.30;99.90
22430;DHT22;11382;48.086;11.632;2022-09-02T05:03:14;10.40;99.90
22430;DHT22;11382;48.086;11.632;2022-09-02T05:05:44;10.70;99.90
22430;DHT22;11382;48.086;11.632;2022-09-02T05:08:14;11.00;99.90
22430;DHT22;11382;48.086;11.632;2022-09-02T05:10:49;11.20;99.90
22430;DHT22;11382;48.086;11.632;2022-09-02T05:13:20;11.60;99.90
22430;DHT22;11382;48.086;11.632;2022-09-02T05:15:51;11.80;99.90
22430;DHT22;11382;48.086;11.632;2022-09-02T05:18:20;12.00;99.90
22430;DHT22;11382;48.086;11.632;2022-09-02T05:20:49;12.20;99.90
22430;DHT22;11382;48.086;11.632;2022-09-02T05:23:17;12.30;99.90
22430;DHT22;11382;48.086;11.632;2022-09-02T05:25:46;12.70;99.90
22430;DHT22;11382;48.086;11.632;2022-09-02T05:28:16;13.20;99.90
22430;DHT22;11382;48.086;11.632;2022-09-02T05:30:45;13.30;99.90
22430;DHT22;11382;48.086;11.632;2022-09-02T05:33:15;13.90;99.90
22430;DHT22;11382;48.086;11.632;2022-09-02T05:35:46;14.70;99.90
22430;DHT22;11382;48.086;11.632;2022-09-02T05:38:16;15.60;99.90
22430;DHT22;11382;48.086;11.632;2022-09-02T05:40:45;16.00;99.90
22430;DHT22;11382;48.086;11.632;2022-09-02T05:43:15;16.60;99.90
22430;DHT22;11382;48.086;11.632;2022-09-02T05:45:43;17.40;99.90
22430;DHT22;11382;48.086;11.632;2022-09-02T05:48:14;17.90;99.90
22430;DHT22;11382;48.086;11.632;2022-09-02T05:51:03;18.40;99.90
22430;DHT22;11382;48.086;11.632;2022-09-02T05:53:33;19.00;99.90
22430;DHT22;11382;48.086;11.632;2022-09-02T05:56:02;19.80;99.90
22430;DHT22;11382;48.086;11.632;2022-09-02T05:58:32;19.90;99.90
22430;DHT22;11382;48.086;11.632;2022-09-02T06:01:07;19.80;99.90
22430;DHT22;11382;48.086;11.632;2022-09-02T06:03:35;20.40;99.90
22430;DHT22;11382;48.086;11.632;2022-09-02T06:06:05;20.50;99.90
22430;DHT22;11382;48.086;11.632;2022-09-02T06:08:36;20.90;99.90
22430;DHT22;11382;48.086;11.632;2022-09-02T06:11:08;20.60;99.90
22430;DHT22;11382;48.086;11.632;2022-09-02T06:13:40;20.10;99.90
22430;DHT22;11382;48.086;11.632;2022-09-02T06:16:12;20.80;99.90
22430;DHT22;11382;48.086;11.632;2022-09-02T06:18:42;20.90;99.90
22430;DHT22;11382;48.086;11.632;2022-09-02T06:21:11;20.60;99.90
22430;DHT22;11382;48.086;11.632;2022-09-02T06:23:42;21.40;99.90
22430;DHT22;11382;48.086;11.632;2022-09-02T06:26:12;21.40;99.90
22430;DHT22;11382;48.086;11.632;2022-09-02T06:28:42;21.80;99.90
22430;DHT22;11382;48.086;11.632;2022-09-02T06:31:13;22.20;99.90
22430;DHT22;11382;48.086;11.632;2022-09-02T06:33:43;22.80;99.90
22430;DHT22;11382;48.086;11.632;2022-09-02T06:36:16;22.90;99.90
22430;DHT22;11382;48.086;11.632;2022-09-02T06:38:48;23.40;99.30
22430;DHT22;11382;48.086;11.632;2022-09-02T06:41:19;23.50;99.00
22430;DHT22;11382;48.086;11.632;2022-09-02T06:43:54;24.60;97.60
22430;DHT22;11382;48.086;11.632;2022-09-02T06:46:26;25.00;95.40
22430;DHT22;11382;48.086;11.632;2022-09-02T06:48:57;23.90;97.20
22430;DHT22;11382;48.086;11.632;2022-09-02T06:51:28;23.60;97.70
22430;DHT22;11382;48.086;11.632;2022-09-02T06:53:59;23.40;97.60
22430;DHT22;11382;48.086;11.632;2022-09-02T06:56:31;22.30;99.40
22430;DHT22;11382;48.086;11.632;2022-09-02T06:59:01;23.60;98.60
22430;DHT22;11382;48.086;11.632;2022-09-02T07:01:41;25.20;96.00
22430;DHT22;11382;48.086;11.632;2022-09-02T07:04:12;24.50;95.90
22430;DHT22;11382;48.086;11.632;2022-09-02T07:06:58;25.00;95.00
22430;DHT22;11382;48.086;11.632;2022-09-02T07:09:30;25.10;94.90
22430;DHT22;11382;48.086;11.632;2022-09-02T07:12:06;24.80;93.80
22430;DHT22;11382;48.086;11.632;2022-09-02T07:14:42;27.10;92.60
22430;DHT22;11382;48.086;11.632;2022-09-02T07:17:14;27.20;90.30
22430;DHT22;11382;48.086;11.632;2022-09-02T07:19:47;26.80;88.40
22430;DHT22;11382;48.086;11.632;2022-09-02T07:22:15;27.00;90.40
22430;DHT22;11382;48.086;11.632;2022-09-02T07:24:45;27.40;87.60
22430;DHT22;11382;48.086;11.632;2022-09-02T07:27:13;28.60;85.20
22430;DHT22;11382;48.086;11.632;2022-09-02T07:29:43;28.90;80.60
22430;DHT22;11382;48.086;11.632;2022-09-02T07:32:11;29.20;80.30
22430;DHT22;11382;48.086;11.632;2022-09-02T07:34:40;30.60;75.80
22430;DHT22;11382;48.086;11.632;2022-09-02T07:37:10;28.20;75.90
22430;DHT22;11382;48.086;11.632;2022-09-02T07:39:41;28.30;77.20
22430;DHT22;11382;48.086;11.632;2022-09-02T07:42:11;28.30;78.30
22430;DHT22;11382;48.086;11.632;2022-09-02T07:44:40;28.50;75.50
22430;DHT22;11382;48.086;11.632;2022-09-02T07:47:10;27.80;78.20
22430;DHT22;11382;48.086;11.632;2022-09-02T07:49:40;28.50;75.30
22430;DHT22;11382;48.086;11.632;2022-09-02T07:52:29;28.50;73.80
22430;DHT22;11382;48.086;11.632;2022-09-02T07:54:57;28.80;73.70
22430;DHT22;11382;48.086;11.632;2022-09-02T07:57:25;29.00;72.30
22430;DHT22;11382;48.086;11.632;2022-09-02T07:59:54;28.50;75.10
22430;DHT22;11382;48.086;11.632;2022-09-02T08:02:24;27.70;73.80
22430;DHT22;11382;48.086;11.632;2022-09-02T08:04:53;29.50;72.70
22430;DHT22;11382;48.086;11.632;2022-09-02T08:07:21;30.00;70.40
22430;DHT22;11382;48.086;11.632;2022-09-02T08:09:50;29.90;69.10
22430;DHT22;11382;48.086;11.632;2022-09-02T08:12:18;29.70;69.00
22430;DHT22;11382;48.086;11.632;2022-09-02T08:14:48;30.50;66.00
22430;DHT22;11382;48.086;11.632;2022-09-02T08:17:16;29.00;68.40
22430;DHT22;11382;48.086;11.632;2022-09-02T08:19:46;29.20;70.30
22430;DHT22;11382;48.086;11.632;2022-09-02T08:22:13;29.70;68.10
22430;DHT22;11382;48.086;11.632;2022-09-02T08:24:41;29.50;68.70
22430;DHT22;11382;48.086;11.632;2022-09-02T08:27:09;29.30;67.50
22430;DHT22;11382;48.086;11.632;2022-09-02T08:29:37;30.10;66.30
22430;DHT22;11382;48.086;11.632;2022-09-02T08:32:05;30.60;64.30
22430;DHT22;11382;48.086;11.632;2022-09-02T08:34:33;30.80;62.50
22430;DHT22;11382;48.086;11.632;2022-09-02T08:37:03;29.80;62.90
22430;DHT22;11382;48.086;11.632;2022-09-02T08:39:32;27.80;67.00
22430;DHT22;11382;48.086;11.632;2022-09-02T08:42:06;28.70;64.80
22430;DHT22;11382;48.086;11.632;2022-09-02T08:44:36;28.60;65.10
22430;DHT22;11382;48.086;11.632;2022-09-02T08:47:11;29.20;64.80
22430;DHT22;11382;48.086;11.632;2022-09-02T08:49:41;28.90;64.50
22430;DHT22;11382;48.086;11.632;2022-09-02T08:52:16;28.50;66.10
22430;DHT22;11382;48.086;11.632;2022-09-02T08:54:50;27.30;65.70
22430;DHT22;11382;48.086;11.632;2022-09-02T08:57:21;28.50;63.90
22430;DHT22;11382;48.086;11.632;2022-09-02T08:59:50;28.70;64.70
22430;DHT22;11382;48.086;11.632;2022-09-02T09:02:24;29.30;65.00
22430;DHT22;11382;48.086;11.632;2022-09-02T09:05:09;29.10;62.60
22430;DHT22;11382;48.086;11.632;2022-09-02T09:07:53;28.20;64.40
22430;DHT22;11382;48.086;11.632;2022-09-02T09:10:27;29.50;62.40
22430;DHT22;11382;48.086;11.632;2022-09-02T09:13:08;28.60;63.20
22430;DHT22;11382;48.086;11.632;2022-09-02T09:15:41;28.20;64.50
22430;DHT22;11382;48.086;11.632;2022-09-02T09:18:14;29.60;63.90
22430;DHT22;11382;48.086;11.632;2022-09-02T09:20:44;29.50;61.50
22430;DHT22;11382;48.086;11.632;2022-09-02T09:23:26;30.10;62.50
22430;DHT22;11382;48.086;11.632;2022-09-02T09:26:05;29.70;60.40
22430;DHT22;11382;48.086;11.632;2022-09-02T09:28:38;29.20;60.60
22430;DHT22;11382;48.086;11.632;2022-09-02T09:31:10;29.00;61.80
22430;DHT22;11382;48.086;11.632;2022-09-02T09:33:38;30.60;60.20
22430;DHT22;11382;48.086;11.632;2022-09-02T09:36:07;31.40;57.20
22430;DHT22;11382;48.086;11.632;2022-09-02T09:38:40;28.70;59.10
22430;DHT22;11382;48.086;11.632;2022-09-02T09:41:14;29.60;61.40
22430;DHT22;11382;48.086;11.632;2022-09-02T09:43:43;29.90;60.80
22430;DHT22;11382;48.086;11.632;2022-09-02T09:46:23;30.20;59.60
22430;DHT22;11382;48.086;11.632;2022-09-02T09:48:53;29.90;59.20
22430;DHT22;11382;48.086;11.632;2022-09-02T09:51:21;29.30;59.40
22430;DHT22;11382;48.086;11.632;2022-09-02T09:53:51;30.30;58.70
22430;DHT22;11382;48.086;11.632;2022-09-02T09:56:39;31.10;58.10
22430;DHT22;11382;48.086;11.632;2022-09-02T09:59:35;30.50;58.10
22430;DHT22;11382;48.086;11.632;2022-09-02T10:02:04;31.20;57.30
22430;DHT22;11382;48.086;11.632;2022-09-02T10:04:32;30.50;58.70
22430;DHT22;11382;48.086;11.632;2022-09-02T10:07:10;30.30;58.90
22430;DHT22;11382;48.086;11.632;2022-09-02T10:09:40;30.90;57.30
22430;DHT22;11382;48.086;11.632;2022-09-02T10:12:11;30.80;58.10
22430;DHT22;11382;48.086;11.632;2022-09-02T10:14:43;30.80;57.00
22430;DHT22;11382;48.086;11.632;2022-09-02T10:17:30;30.80;56.30
22430;DHT22;11382;48.086;11.632;2022-09-02T10:20:02;30.20;58.20
22430;DHT22;11382;48.086;11.632;2022-09-02T10:22:59;30.70;56.20
22430;DHT22;11382;48.086;11.632;2022-09-02T10:25:39;30.10;55.30
22430;DHT22;11382;48.086;11.632;2022-09-02T10:28:20;28.40;56.70
22430;DHT22;11382;48.086;11.632;2022-09-02T10:31:01;29.70;56.00
22430;DHT22;11382;48.086;11.632;2022-09-02T10:33:38;30.90;54.00
22430;DHT22;11382;48.086;11.632;2022-09-02T10:36:12;29.60;55.40
22430;DHT22;11382;48.086;11.632;2022-09-02T10:38:50;29.00;56.40
22430;DHT22;11382;48.086;11.632;2022-09-02T10:41:30;29.70;56.30
22430;DHT22;11382;48.086;11.632;2022-09-02T10:44:11;29.40;56.70
22430;DHT22;11382;48.086;11.632;2022-09-02T10:46:59;30.00;54.50
22430;DHT22;11382;48.086;11.632;2022-09-02T10:49:41;30.30;54.60
22430;DHT22;11382;48.086;11.632;2022-09-02T10:52:20;29.90;53.30
22430;DHT22;11382;48.086;11.632;2022-09-02T10:54:58;29.80;54.70
22430;DHT22;11382;48.086;11.632;2022-09-02T10:57:33;30.50;54.80
22430;DHT22;11382;48.086;11.632;2022-09-02T11:00:04;30.30;53.00
22430;DHT22;11382;48.086;11.632;2022-09-02T11:02:37;30.20;53.80
22430;DHT22;11382;48.086;11.632;2022-09-02T11:05:11;29.80;54.50
22430;DHT22;11382;48.086;11.632;2022-09-02T11:07:46;30.30;54.00
22430;DHT22;11382;48.086;11.632;2022-09-02T11:10:20;29.80;54.30
22430;DHT22;11382;48.086;11.632;2022-09-02T11:12:56;30.20;54.90
22430;DHT22;11382;48.086;11.632;2022-09-02T11:15:36;31.20;51.60
22430;DHT22;11382;48.086;11.632;2022-09-02T11:18:12;33.10;52.20
22430;DHT22;11382;48.086;11.632;2022-09-02T11:20:46;31.70;51.50
22430;DHT22;11382;48.086;11.632;2022-09-02T11:23:21;30.60;51.00
22430;DHT22;11382;48.086;11.632;2022-09-02T11:25:59;30.20;53.10
22430;DHT22;11382;48.086;11.632;2022-09-02T11:28:35;30.80;52.70
22430;DHT22;11382;48.086;11.632;2022-09-02T11:31:06;30.80;52.40
22430;DHT22;11382;48.086;11.632;2022-09-02T11:33:45;31.30;52.40
22430;DHT22;11382;48.086;11.632;2022-09-02T11:36:16;30.50;53.40
22430;DHT22;11382;48.086;11.632;2022-09-02T11:38:49;30.40;52.90
22430;DHT22;11382;48.086;11.632;2022-09-02T11:41:25;29.80;53.80
22430;DHT22;11382;48.086;11.632;2022-09-02T11:44:17;30.40;53.40
22430;DHT22;11382;48.086;11.632;2022-09-02T11:46:58;29.60;53.00
22430;DHT22;11382;48.086;11.632;2022-09-02T11:49:50;29.60;55.10
22430;DHT22;11382;48.086;11.632;2022-09-02T11:52:28;30.70;52.30
22430;DHT22;11382;48.086;11.632;2022-09-02T11:55:07;31.40;53.30
22430;DHT22;11382;48.086;11.632;2022-09-02T11:57:35;29.90;53.20
22430;DHT22;11382;48.086;11.632;2022-09-02T12:00:12;27.50;57.20
22430;DHT22;11382;48.086;11.632;2022-09-02T12:02:59;25.80;61.00
22430;DHT22;11382;48.086;11.632;2022-09-02T12:08:56;24.00;66.40
22430;DHT22;11382;48.086;11.632;2022-09-02T12:11:36;23.30;66.80
22430;DHT22;11382;48.086;11.632;2022-09-02T12:14:07;23.00;69.10
22430;DHT22;11382;48.086;11.632;2022-09-02T12:16:43;22.80;68.90
22430;DHT22;11382;48.086;11.632;2022-09-02T12:19:27;22.70;69.80
22430;DHT22;11382;48.086;11.632;2022-09-02T12:22:32;22.00;70.00
22430;DHT22;11382;48.086;11.632;2022-09-02T12:25:34;22.40;69.40
22430;DHT22;11382;48.086;11.632;2022-09-02T12:28:22;22.40;70.90
22430;DHT22;11382;48.086;11.632;2022-09-02T12:31:14;22.20;70.50
22430;DHT22;11382;48.086;11.632;2022-09-02T12:33:49;22.10;72.20
22430;DHT22;11382;48.086;11.632;2022-09-02T12:36:46;22.30;73.30
22430;DHT22;11382;48.086;11.632;2022-09-02T12:39:50;22.10;72.40
22430;DHT22;11382;48.086;11.632;2022-09-02T12:42:26;22.40;74.40
22430;DHT22;11382;48.086;11.632;2022-09-02T12:45:04;22.40;73.60
22430;DHT22;11382;48.086;11.632;2022-09-02T12:47:45;22.20;72.20
22430;DHT22;11382;48.086;11.632;2022-09-02T12:50:21;22.10;75.00
22430;DHT22;11382;48.086;11.632;2022-09-02T12:52:51;22.20;75.40
22430;DHT22;11382;48.086;11.632;2022-09-02T12:55:30;22.20;75.90
22430;DHT22;11382;48.086;11.632;2022-09-02T12:58:07;21.90;73.90
22430;DHT22;11382;48.086;11.632;2022-09-02T13:00:44;22.10;75.90
22430;DHT22;11382;48.086;11.632;2022-09-02T13:03:34;22.30;77.40
22430;DHT22;11382;48.086;11.632;2022-09-02T13:06:12;21.90;74.40
22430;DHT22;11382;48.086;11.632;2022-09-02T13:12:00;21.70;77.20
22430;DHT22;11382;48.086;11.632;2022-09-02T13:14:52;21.90;76.80
22430;DHT22;11382;48.086;11.632;2022-09-02T13:17:25;22.00;77.70
22430;DHT22;11382;48.086;11.632;2022-09-02T13:20:26;21.80;77.40
22430;DHT22;11382;48.086;11.632;2022-09-02T13:23:27;21.80;76.60
22430;DHT22;11382;48.086;11.632;2022-09-02T13:29:51;22.10;76.00
22430;DHT22;11382;48.086;11.632;2022-09-02T13:32:28;21.60;77.20
22430;DHT22;11382;48.086;11.632;2022-09-02T13:35:00;21.80;78.50
22430;DHT22;11382;48.086;11.632;2022-09-02T13:37:30;21.80;78.40
22430;DHT22;11382;48.086;11.632;2022-09-02T13:40:05;21.80;77.40
22430;DHT22;11382;48.086;11.632;2022-09-02T13:42:34;21.80;78.30
22430;DHT22;11382;48.086;11.632;2022-09-02T13:45:11;21.70;78.60
22430;DHT22;11382;48.086;11.632;2022-09-02T13:47:43;21.50;78.10
22430;DHT22;11382;48.086;11.632;2022-09-02T13:50:14;21.60;79.50
22430;DHT22;11382;48.086;11.632;2022-09-02T13:52:46;21.90;78.60
22430;DHT22;11382;48.086;11.632;2022-09-02T13:55:36;22.10;78.20
22430;DHT22;11382;48.086;11.632;2022-09-02T13:58:29;22.10;78.20
22430;DHT22;11382;48.086;11.632;2022-09-02T14:01:17;22.00;77.60
22430;DHT22;11382;48.086;11.632;2022-09-02T14:03:47;22.20;77.50
22430;DHT22;11382;48.086;11.632;2022-09-02T14:06:19;21.90;78.00
22430;DHT22;11382;48.086;11.632;2022-09-02T14:08:51;21.90;77.50
22430;DHT22;11382;48.086;11.632;2022-09-02T14:11:20;21.70;78.90
22430;DHT22;11382;48.086;11.632;2022-09-02T14:13:49;21.70;78.10
22430;DHT22;11382;48.086;11.632;2022-09-02T14:16:29;21.80;78.80
22430;DHT22;11382;48.086;11.632;2022-09-02T14:19:03;21.90;79.90
22430;DHT22;11382;48.086;11.632;2022-09-02T14:21:33;21.80;79.60
22430;DHT22;11382;48.086;11.632;2022-09-02T14:24:01;21.80;80.10
22430;DHT22;11382;48.086;11.632;2022-09-02T14:26:34;21.70;78.80
22430;DHT22;11382;48.086;11.632;2022-09-02T14:29:04;21.70;79.70
22430;DHT22;11382;48.086;11.632;2022-09-02T14:31:33;21.60;78.60
22430;DHT22;11382;48.086;11.632;2022-09-02T14:34:03;21.80;80.30
22430;DHT22;11382;48.086;11.632;2022-09-02T14:36:51;21.60;78.20
22430;DHT22;11382;48.086;11.632;2022-09-02T14:39:19;21.70;79.80
22430;DHT22;11382;48.086;11.632;2022-09-02T14:41:50;21.70;79.60
22430;DHT22;11382;48.086;11.632;2022-09-02T14:44:22;21.50;78.50
22430;DHT22;11382;48.086;11.632;2022-09-02T14:46:53;21.50;80.50
22430;DHT22;11382;48.086;11.632;2022-09-02T14:49:25;21.50;78.90
22430;DHT22;11382;48.086;11.632;2022-09-02T14:51:56;21.40;78.80
22430;DHT22;11382;48.086;11.632;2022-09-02T14:54:36;21.30;78.30
22430;DHT22;11382;48.086;11.632;2022-09-02T14:57:19;21.50;78.50
22430;DHT22;11382;48.086;11.632;2022-09-02T14:59:48;21.70;79.80
22430;DHT22;11382;48.086;11.632;2022-09-02T15:02:21;21.70;79.00
22430;DHT22;11382;48.086;11.632;2022-09-02T15:04:49;21.60;78.30
22430;DHT22;11382;48.086;11.632;2022-09-02T15:07:17;21.50;78.10
22430;DHT22;11382;48.086;11.632;2022-09-02T15:09:45;21.30;79.30
22430;DHT22;11382;48.086;11.632;2022-09-02T15:12:19;21.30;80.80
22430;DHT22;11382;48.086;11.632;2022-09-02T15:14:50;21.50;79.20
22430;DHT22;11382;48.086;11.632;2022-09-02T15:17:19;21.40;78.70
22430;DHT22;11382;48.086;11.632;2022-09-02T15:19:47;21.40;78.00
22430;DHT22;11382;48.086;11.632;2022-09-02T15:22:16;21.40;78.40
22430;DHT22;11382;48.086;11.632;2022-09-02T15:24:45;21.50;78.40
22430;DHT22;11382;48.086;11.632;2022-09-02T15:27:15;21.30;77.80
22430;DHT22;11382;48.086;11.632;2022-09-02T15:29:48;21.20;78.90
22430;DHT22;11382;48.086;11.632;2022-09-02T15:32:16;21.30;79.40
22430;DHT22;11382;48.086;11.632;2022-09-02T15:34:44;21.30;79.10
22430;DHT22;11382;48.086;11.632;2022-09-02T15:37:12;21.40;79.30
22430;DHT22;11382;48.086;11.632;2022-09-02T15:39:40;21.30;79.20
22430;DHT22;11382;48.086;11.632;2022-09-02T15:42:08;21.20;78.70
22430;DHT22;11382;48.086;11.632;2022-09-02T15:44:36;21.20;79.20
22430;DHT22;11382;48.086;11.632;2022-09-02T15:47:05;21.10;78.80
22430;DHT22;11382;48.086;11.632;2022-09-02T15:49:33;21.00;80.20
22430;DHT22;11382;48.086;11.632;2022-09-02T15:52:02;21.10;80.40
22430;DHT22;11382;48.086;11.632;2022-09-02T15:54:30;21.00;79.50
22430;DHT22;11382;48.086;11.632;2022-09-02T15:56:58;21.10;79.00
22430;DHT22;11382;48.086;11.632;2022-09-02T15:59:26;21.10;79.70
22430;DHT22;11382;48.086;11.632;2022-09-02T16:01:55;21.00;80.20